Time;durP1;ratioP1;P1;durP2;ratioP2;P2;SDS_P1;SDS_P2;PMS_P1;PMS_P2;Temp;Humidity;BMP_temperature;BMP_pressure;BME280_temperature;BME280_humidity;BME280_pressure;Samples;Min_cycle;Max_cycle;Signal;HPM_P1;HPM_P2
2023/05/23 00:02:15;;;;;;;9.13;8.33;;;19.10;99.90;;;;;;5034532;28;20195;-53
2023/05/23 00:04:43;;;;;;;9.10;8.40;;;18.90;99.90;;;;;;5034766;28;20290;-53
2023/05/23 00:07:10;;;;;;;10.03;9.20;;;18.90;99.90;;;;;;5031794;28;20221;-52
2023/05/23 00:09:38;;;;;;;9.97;8.90;;;18.90;99.90;;;;;;5033740;28;20210;-52
2023/05/23 00:12:06;;;;;;;9.60;8.80;;;18.90;99.90;;;;;;5033485;28;20240;-53
2023/05/23 00:14:34;;;;;;;10.40;9.50;;;18.80;99.90;;;;;;5033635;28;20285;-52
2023/05/23 00:17:04;;;;;;;9.20;8.50;;;18.70;99.90;;;;;;5029006;28;20323;-52
2023/05/23 00:19:35;;;;;;;11.07;10.03;;;18.70;99.90;;;;;;5033021;28;20211;-53
2023/05/23 00:22:03;;;;;;;9.77;8.60;;;18.70;99.90;;;;;;5034846;28;20213;-52
2023/05/23 00:24:30;;;;;;;9.67;8.77;;;18.60;99.90;;;;;;5026839;28;20207;-53
2023/05/23 00:26:58;;;;;;;10.40;9.50;;;18.50;99.90;;;;;;5032338;28;20227;-53
2023/05/23 00:29:25;;;;;;;9.83;9.03;;;18.40;99.90;;;;;;5034011;28;20265;-53
2023/05/23 00:31:52;;;;;;;10.87;9.97;;;18.30;99.90;;;;;;5034415;28;20207;-53
2023/05/23 00:34:20;;;;;;;9.80;8.90;;;18.40;99.90;;;;;;5033351;28;20268;-53
2023/05/23 00:36:49;;;;;;;9.70;8.80;;;18.40;99.90;;;;;;5033164;28;20219;-53
2023/05/23 00:39:18;;;;;;;9.63;8.83;;;18.40;99.90;;;;;;5027821;28;20226;-54
2023/05/23 00:41:46;;;;;;;10.73;9.87;;;18.30;99.90;;;;;;5036694;28;20289;-53
2023/05/23 00:44:15;;;;;;;10.07;9.30;;;18.50;99.90;;;;;;5034084;28;20250;-53
2023/05/23 00:46:45;;;;;;;9.20;8.43;;;18.30;99.90;;;;;;5033021;28;20231;-53
2023/05/23 00:49:12;;;;;;;10.13;9.37;;;18.30;99.90;;;;;;5026656;28;20281;-53
2023/05/23 00:51:41;;;;;;;10.20;9.37;;;18.20;99.90;;;;;;5032707;28;20256;-53
2023/05/23 00:54:09;;;;;;;10.07;9.33;;;18.20;99.90;;;;;;5014255;28;20213;-52
2023/05/23 00:56:38;;;;;;;10.10;9.17;;;18.10;99.90;;;;;;5031455;28;20635;-53
2023/05/23 00:59:06;;;;;;;9.63;8.73;;;18.00;99.90;;;;;;5033346;28;20248;-52
2023/05/23 01:01:35;;;;;;;9.07;8.30;;;17.90;99.90;;;;;;5033831;28;20210;-54
2023/05/23 01:04:03;;;;;;;10.47;9.57;;;17.90;99.90;;;;;;5032096;28;20206;-53
2023/05/23 01:06:32;;;;;;;10.77;9.97;;;18.00;99.90;;;;;;5032832;28;20622;-53
2023/05/23 01:09:01;;;;;;;11.67;10.67;;;18.00;99.90;;;;;;5027940;28;20203;-53
2023/05/23 01:11:37;;;;;;;11.73;10.63;;;18.00;99.90;;;;;;5032939;28;20290;-53
2023/05/23 01:14:10;;;;;;;10.83;9.93;;;18.00;99.90;;;;;;5032590;28;20732;-52
2023/05/23 01:16:47;;;;;;;11.27;10.37;;;17.90;99.90;;;;;;5052615;22;20757;-57
2023/05/23 01:19:35;;;;;;;10.20;9.47;;;17.90;99.90;;;;;;5030091;28;20210;-57
2023/05/23 01:22:23;;;;;;;10.57;9.57;;;17.90;99.90;;;;;;5030803;28;20202;-57
2023/05/23 01:24:57;;;;;;;11.13;10.23;;;17.90;99.90;;;;;;5029554;28;20206;-57
2023/05/23 01:27:36;;;;;;;10.77;9.77;;;17.90;99.90;;;;;;5039122;28;20272;-57
2023/05/23 01:30:07;;;;;;;10.60;9.47;;;17.90;99.90;;;;;;5051823;28;20229;-56
2023/05/23 01:32:35;;;;;;;10.60;9.67;;;17.90;99.90;;;;;;5052485;28;20205;-57
2023/05/23 01:35:03;;;;;;;10.10;9.10;;;17.90;99.90;;;;;;5052555;28;20617;-57
2023/05/23 01:37:30;;;;;;;9.43;8.70;;;17.90;99.90;;;;;;5051623;28;20217;-57
2023/05/23 01:39:57;;;;;;;10.27;9.27;;;17.90;99.90;;;;;;5049624;28;20681;-57
2023/05/23 01:42:24;;;;;;;10.90;9.83;;;17.90;99.90;;;;;;5044313;28;20655;-57
2023/05/23 01:44:52;;;;;;;12.70;10.33;;;17.90;99.90;;;;;;5051314;28;20206;-57
2023/05/23 01:47:21;;;;;;;10.63;9.63;;;18.00;99.90;;;;;;5051212;28;20690;-57
2023/05/23 01:49:49;;;;;;;9.57;8.83;;;18.00;99.90;;;;;;5050084;28;20205;-57
2023/05/23 01:52:16;;;;;;;10.00;9.13;;;18.00;99.90;;;;;;5051819;28;20197;-57
2023/05/23 01:54:44;;;;;;;10.70;9.60;;;18.00;99.90;;;;;;5048836;28;20235;-57
2023/05/23 01:57:12;;;;;;;9.90;9.07;;;17.90;99.90;;;;;;5051191;28;20268;-56
2023/05/23 01:59:39;;;;;;;10.70;9.87;;;17.90;99.90;;;;;;5051890;28;20251;-57
2023/05/23 02:02:07;;;;;;;12.30;10.13;;;17.90;99.90;;;;;;5047566;28;20294;-57
2023/05/23 02:04:35;;;;;;;10.43;9.50;;;17.90;99.90;;;;;;5051048;28;20575;-57
2023/05/23 02:07:03;;;;;;;11.57;10.43;;;17.80;99.90;;;;;;5050177;28;20291;-57
2023/05/23 02:09:30;;;;;;;10.20;9.37;;;17.80;99.90;;;;;;5051269;28;20197;-57
2023/05/23 02:11:58;;;;;;;10.23;9.43;;;17.70;99.90;;;;;;5051487;28;20728;-57
2023/05/23 02:14:27;;;;;;;9.73;8.93;;;17.70;99.90;;;;;;5043705;28;20202;-57
2023/05/23 02:16:54;;;;;;;9.93;9.17;;;17.80;99.90;;;;;;5049413;28;20233;-57
2023/05/23 02:19:22;;;;;;;8.97;8.27;;;17.80;99.90;;;;;;5051004;28;20201;-57
2023/05/23 02:21:49;;;;;;;10.80;9.80;;;17.70;99.90;;;;;;5051523;28;20741;-57
2023/05/23 02:24:16;;;;;;;9.50;8.70;;;17.70;99.90;;;;;;5051518;28;20625;-57
2023/05/23 02:26:43;;;;;;;11.10;10.20;;;17.70;99.90;;;;;;5051477;28;20290;-57
2023/05/23 02:29:10;;;;;;;10.83;10.03;;;17.80;99.90;;;;;;5049415;28;20194;-57
2023/05/23 02:31:37;;;;;;;11.57;10.37;;;17.80;99.90;;;;;;5048659;28;20202;-57
2023/05/23 02:34:04;;;;;;;11.43;10.33;;;17.80;99.90;;;;;;5051019;28;20283;-56
2023/05/23 02:36:33;;;;;;;13.47;9.97;;;17.80;99.90;;;;;;5051222;28;20252;-56
2023/05/23 02:39:00;;;;;;;12.03;10.50;;;17.80;99.90;;;;;;5050583;28;20268;-57
2023/05/23 02:41:26;;;;;;;12.93;11.00;;;17.80;99.90;;;;;;5049871;28;20242;-57
2023/05/23 02:43:53;;;;;;;12.57;11.40;;;17.90;99.90;;;;;;5049491;28;20201;-57
2023/05/23 02:46:20;;;;;;;11.73;10.43;;;17.90;99.90;;;;;;5051402;28;20213;-57
2023/05/23 02:48:47;;;;;;;11.53;10.43;;;17.90;99.90;;;;;;5049793;28;20780;-57
2023/05/23 02:51:14;;;;;;;10.97;9.97;;;17.90;99.90;;;;;;5051429;28;20571;-57
2023/05/23 02:53:43;;;;;;;11.17;10.07;;;17.80;99.90;;;;;;5050227;28;20213;-57
2023/05/23 02:56:10;;;;;;;13.43;12.20;;;17.70;99.90;;;;;;5045810;28;20575;-56
2023/05/23 02:58:38;;;;;;;11.63;10.63;;;17.70;99.90;;;;;;5046874;28;20304;-57
2023/05/23 03:01:07;;;;;;;11.13;10.03;;;17.70;99.90;;;;;;5033171;28;20282;-57
2023/05/23 03:03:34;;;;;;;11.43;10.43;;;17.60;99.90;;;;;;5034015;28;20263;-57
2023/05/23 03:06:02;;;;;;;16.47;12.70;;;17.60;99.90;;;;;;5050839;28;20222;-57
2023/05/23 03:08:29;;;;;;;13.40;12.17;;;17.50;99.90;;;;;;5046622;28;20245;-57
2023/05/23 03:10:57;;;;;;;11.73;10.73;;;17.50;99.90;;;;;;5042971;28;20260;-57
2023/05/23 03:13:24;;;;;;;11.17;10.13;;;17.50;99.90;;;;;;5050783;28;20251;-57
2023/05/23 03:15:51;;;;;;;12.57;10.90;;;17.50;99.90;;;;;;5051147;28;20194;-57
2023/05/23 03:18:18;;;;;;;12.37;11.23;;;17.40;99.90;;;;;;5049151;28;20225;-57
2023/05/23 03:20:45;;;;;;;12.40;11.30;;;17.40;99.90;;;;;;5047422;28;20347;-57
2023/05/23 03:23:12;;;;;;;11.40;10.33;;;17.30;99.90;;;;;;5050350;28;20684;-56
2023/05/23 03:25:39;;;;;;;13.10;11.80;;;17.20;99.90;;;;;;5050782;28;20260;-57
2023/05/23 03:28:07;;;;;;;12.07;11.13;;;17.20;99.90;;;;;;5050534;28;20633;-58
2023/05/23 03:30:34;;;;;;;12.73;11.43;;;17.10;99.90;;;;;;5054934;28;20244;-57
2023/05/23 03:33:01;;;;;;;11.80;10.77;;;17.10;99.90;;;;;;5052809;28;20251;-57
2023/05/23 03:35:28;;;;;;;12.27;11.10;;;17.10;99.90;;;;;;5054613;28;20285;-57
2023/05/23 03:37:55;;;;;;;12.13;10.90;;;17.10;99.90;;;;;;5050790;28;20225;-67
2023/05/23 03:40:22;;;;;;;11.63;10.53;;;17.10;99.90;;;;;;5054090;28;20198;-57
2023/05/23 03:43:02;;;;;;;12.20;11.10;;;17.10;99.90;;;;;;5046005;28;20199;-56
2023/05/23 03:45:31;;;;;;;13.63;11.37;;;17.10;99.90;;;;;;5053003;28;20292;-56
2023/05/23 03:47:57;;;;;;;11.47;10.37;;;17.10;99.90;;;;;;5048647;28;20221;-56
2023/05/23 03:50:25;;;;;;;11.57;10.50;;;17.10;99.90;;;;;;5048617;28;20797;-55
2023/05/23 03:52:52;;;;;;;11.57;10.53;;;17.10;99.90;;;;;;5049702;28;20232;-56
2023/05/23 03:55:21;;;;;;;10.60;9.50;;;17.10;99.90;;;;;;5051260;28;20202;-57
2023/05/23 03:57:48;;;;;;;12.23;11.13;;;17.10;99.90;;;;;;5042814;28;20213;-56
2023/05/23 04:00:15;;;;;;;11.30;9.93;;;17.10;99.90;;;;;;5054296;28;20309;-56
2023/05/23 04:02:44;;;;;;;12.87;11.77;;;17.10;99.90;;;;;;5054100;28;20263;-56
2023/05/23 04:05:12;;;;;;;10.40;9.40;;;17.10;99.90;;;;;;5054428;28;20201;-57
2023/05/23 04:07:40;;;;;;;10.27;9.27;;;17.20;99.90;;;;;;5052814;28;20226;-56
2023/05/23 04:10:08;;;;;;;10.97;9.90;;;17.20;99.90;;;;;;5053865;28;20201;-59
2023/05/23 04:12:35;;;;;;;11.90;10.80;;;17.30;99.90;;;;;;5039960;28;20202;-56
2023/05/23 04:15:02;;;;;;;10.10;9.37;;;17.30;99.90;;;;;;5034047;28;20672;-57
2023/05/23 04:17:30;;;;;;;11.80;10.70;;;17.30;99.90;;;;;;5041133;28;20233;-56
2023/05/23 04:19:58;;;;;;;11.87;10.67;;;17.40;99.90;;;;;;5053889;28;20198;-57
2023/05/23 04:22:25;;;;;;;11.73;10.47;;;17.50;99.90;;;;;;5053667;28;20205;-56
2023/05/23 04:24:52;;;;;;;11.50;10.50;;;17.50;99.90;;;;;;5054097;28;20202;-57
2023/05/23 04:27:21;;;;;;;11.97;10.87;;;17.60;99.90;;;;;;5045129;28;20221;-56
2023/05/23 04:29:48;;;;;;;12.67;10.73;;;17.70;99.90;;;;;;5052246;28;20201;-56
2023/05/23 04:32:15;;;;;;;14.53;12.03;;;17.80;99.90;;;;;;5053462;28;20202;-56
2023/05/23 04:34:43;;;;;;;10.63;9.73;;;17.80;99.90;;;;;;5053461;28;20293;-57
2023/05/23 04:37:11;;;;;;;13.23;11.93;;;17.80;99.90;;;;;;5053056;28;20222;-56
2023/05/23 04:39:38;;;;;;;13.53;12.23;;;17.80;99.90;;;;;;5051756;28;20240;-57
2023/05/23 04:42:06;;;;;;;12.07;10.97;;;17.90;99.90;;;;;;5045704;28;20198;-56
2023/05/23 04:44:36;;;;;;;11.83;10.83;;;17.90;99.90;;;;;;5051921;28;20209;-56
2023/05/23 04:47:04;;;;;;;14.30;10.93;;;17.90;99.90;;;;;;5050755;28;20233;-56
2023/05/23 04:49:33;;;;;;;13.80;12.30;;;17.90;99.90;;;;;;5049101;28;20206;-56
2023/05/23 04:52:00;;;;;;;13.97;12.57;;;17.90;99.90;;;;;;5051352;28;20197;-56
2023/05/23 04:54:28;;;;;;;14.00;12.60;;;18.00;99.90;;;;;;5048042;28;20245;-57
2023/05/23 04:56:55;;;;;;;12.97;11.67;;;18.10;99.90;;;;;;5050004;28;20286;-57
2023/05/23 04:59:22;;;;;;;11.90;10.80;;;18.10;99.90;;;;;;5045811;28;20201;-55
2023/05/23 05:01:49;;;;;;;11.30;10.40;;;18.10;99.90;;;;;;5049301;28;20211;-57
2023/05/23 05:04:16;;;;;;;12.70;11.40;;;18.10;99.90;;;;;;5045325;28;20198;-56
2023/05/23 05:06:43;;;;;;;13.17;11.97;;;18.00;99.90;;;;;;5042748;28;20218;-56
2023/05/23 05:09:10;;;;;;;11.33;10.37;;;18.10;99.90;;;;;;5048914;28;20267;-56
2023/05/23 05:11:38;;;;;;;11.93;10.70;;;18.10;99.90;;;;;;5044034;28;20202;-56
2023/05/23 05:14:06;;;;;;;12.13;11.00;;;18.00;99.90;;;;;;5052607;28;20272;-57
2023/05/23 05:16:33;;;;;;;12.87;11.77;;;18.10;99.90;;;;;;5052713;28;20198;-55
2023/05/23 05:19:00;;;;;;;13.53;12.33;;;18.10;99.90;;;;;;5049775;28;20251;-56
2023/05/23 05:21:26;;;;;;;12.10;11.00;;;18.20;99.90;;;;;;5043756;28;20213;-56
2023/05/23 05:23:53;;;;;;;13.03;11.73;;;18.20;99.90;;;;;;5045668;28;20211;-57
2023/05/23 05:26:20;;;;;;;11.80;10.70;;;18.30;99.90;;;;;;5049905;28;20201;-56
2023/05/23 05:28:50;;;;;;;13.23;11.93;;;18.40;99.90;;;;;;5043134;28;20383;-57
2023/05/23 05:31:17;;;;;;;13.20;11.73;;;18.60;99.90;;;;;;5046035;28;20285;-56
2023/05/23 05:33:45;;;;;;;13.00;11.90;;;18.80;99.90;;;;;;5045076;28;20213;-56
2023/05/23 05:36:12;;;;;;;13.77;12.57;;;18.90;99.90;;;;;;5050361;28;20521;-57
2023/05/23 05:38:39;;;;;;;14.40;12.90;;;19.60;99.90;;;;;;5048788;28;20711;-57
2023/05/23 05:41:06;;;;;;;13.53;12.23;;;19.60;99.90;;;;;;5051973;28;20198;-56
2023/05/23 05:43:33;;;;;;;13.53;12.23;;;20.10;99.90;;;;;;5051255;28;20206;-56
2023/05/23 05:46:02;;;;;;;14.47;13.27;;;20.80;99.90;;;;;;5048843;28;20198;-57
2023/05/23 05:48:28;;;;;;;17.20;13.07;;;21.10;99.90;;;;;;5050063;28;20367;-57
2023/05/23 05:50:55;;;;;;;14.73;13.30;;;21.00;99.90;;;;;;5051013;28;20351;-56
2023/05/23 05:53:22;;;;;;;16.83;14.37;;;20.60;99.90;;;;;;5047833;28;20198;-57
2023/05/23 05:55:49;;;;;;;13.53;12.33;;;20.40;99.90;;;;;;5051972;28;20577;-66
2023/05/23 05:58:16;;;;;;;14.03;12.63;;;20.20;99.90;;;;;;5049121;28;20222;-57
2023/05/23 06:00:44;;;;;;;14.50;13.17;;;20.10;99.90;;;;;;5050737;28;20644;-58
2023/05/23 06:03:13;;;;;;;14.23;12.80;;;20.00;99.90;;;;;;5051321;28;20198;-57
2023/05/23 06:05:39;;;;;;;13.40;12.40;;;20.00;99.90;;;;;;5049898;28;20198;-57
2023/05/23 06:08:07;;;;;;;13.60;12.47;;;19.90;99.90;;;;;;5048927;28;20719;-58
2023/05/23 06:10:34;;;;;;;13.23;11.93;;;19.70;99.90;;;;;;5042861;28;20221;-57
2023/05/23 06:13:01;;;;;;;13.00;11.87;;;19.60;99.90;;;;;;5043308;28;20194;-65
2023/05/23 06:15:28;;;;;;;12.87;11.67;;;19.70;99.90;;;;;;5040281;28;20202;-56
2023/05/23 06:17:55;;;;;;;14.17;12.17;;;19.80;99.90;;;;;;5046864;28;20225;-57
2023/05/23 06:20:23;;;;;;;13.63;12.23;;;19.80;99.90;;;;;;5043673;28;20266;-58
2023/05/23 06:22:50;;;;;;;13.67;12.37;;;19.60;99.90;;;;;;5051290;28;20201;-58
2023/05/23 06:25:17;;;;;;;14.43;12.57;;;19.60;99.90;;;;;;5046658;28;20240;-58
2023/05/23 06:27:45;;;;;;;12.93;11.63;;;19.50;99.90;;;;;;5042504;28;20253;-57
2023/05/23 06:30:14;;;;;;;13.37;12.23;;;19.40;99.90;;;;;;5042066;28;20232;-58
2023/05/23 06:32:41;;;;;;;14.10;12.70;;;19.30;99.90;;;;;;5039300;28;20201;-57
2023/05/23 06:35:10;;;;;;;13.17;11.83;;;19.20;99.90;;;;;;5031478;28;20294;-57
2023/05/23 06:37:42;;;;;;;15.33;13.77;;;19.20;99.90;;;;;;5039828;28;20264;-57
2023/05/23 06:40:10;;;;;;;14.83;12.60;;;19.00;99.90;;;;;;5051413;28;20227;-57
2023/05/23 06:42:37;;;;;;;14.40;13.20;;;19.00;99.90;;;;;;5038785;28;20202;-57
2023/05/23 06:45:04;;;;;;;14.37;12.83;;;19.00;99.90;;;;;;5045370;28;20260;-58
2023/05/23 06:47:31;;;;;;;16.80;12.30;;;19.10;99.90;;;;;;5030807;28;20304;-57
2023/05/23 06:49:58;;;;;;;17.43;13.63;;;19.00;99.90;;;;;;5031522;28;20295;-56
2023/05/23 06:52:25;;;;;;;14.00;12.53;;;19.00;99.90;;;;;;5037018;28;20249;-57
2023/05/23 06:54:53;;;;;;;16.93;12.37;;;19.00;99.90;;;;;;5051003;28;20285;-58
2023/05/23 06:57:20;;;;;;;12.57;11.47;;;19.10;99.90;;;;;;5051125;28;20279;-58
2023/05/23 06:59:47;;;;;;;13.60;12.27;;;19.20;99.90;;;;;;5050013;28;20259;-57
2023/05/23 07:02:14;;;;;;;12.20;11.10;;;19.20;99.90;;;;;;5048414;28;20283;-58
2023/05/23 07:04:41;;;;;;;13.20;11.90;;;19.30;99.90;;;;;;5030905;28;20270;-57
2023/05/23 07:07:08;;;;;;;12.83;11.53;;;19.30;99.90;;;;;;5030898;28;20222;-58
2023/05/23 07:09:35;;;;;;;13.33;11.97;;;19.40;99.90;;;;;;5041139;28;20285;-57
2023/05/23 07:12:07;;;;;;;14.00;12.67;;;19.50;99.90;;;;;;5051135;28;20255;-57
2023/05/23 07:14:34;;;;;;;11.90;10.87;;;19.50;99.90;;;;;;5049237;28;20233;-57
2023/05/23 07:17:01;;;;;;;9.77;8.97;;;19.60;99.90;;;;;;5048553;28;20683;-57
2023/05/23 07:19:28;;;;;;;10.97;9.97;;;19.80;99.90;;;;;;5073848;22;20229;-52
2023/05/23 07:21:55;;;;;;;13.73;12.27;;;20.10;99.90;;;;;;5042469;28;20652;-51
2023/05/23 07:24:22;;;;;;;12.17;10.97;;;20.40;99.90;;;;;;5044336;28;20190;-51
2023/05/23 07:26:49;;;;;;;13.77;12.43;;;20.50;99.90;;;;;;5051258;28;20628;-52
2023/05/23 07:29:17;;;;;;;11.63;10.63;;;20.70;99.90;;;;;;5051198;28;20707;-52
2023/05/23 07:31:44;;;;;;;13.67;12.37;;;20.70;99.90;;;;;;5050127;28;20663;-51
2023/05/23 07:34:11;;;;;;;14.70;12.80;;;20.70;99.90;;;;;;5043368;28;20205;-51
2023/05/23 07:36:39;;;;;;;12.73;11.53;;;20.70;99.90;;;;;;5050440;28;20211;-51
2023/05/23 07:39:06;;;;;;;11.67;10.57;;;20.70;99.90;;;;;;5039894;28;20210;-51
2023/05/23 07:41:33;;;;;;;13.27;12.03;;;20.70;99.90;;;;;;5047271;28;20288;-52
2023/05/23 07:44:00;;;;;;;14.07;12.47;;;20.90;99.90;;;;;;5050600;28;20206;-52
2023/05/23 07:46:29;;;;;;;14.30;12.90;;;20.90;99.90;;;;;;5051166;28;20727;-51
2023/05/23 07:48:56;;;;;;;16.30;14.60;;;21.10;99.90;;;;;;5051085;28;20275;-52
2023/05/23 07:51:23;;;;;;;16.57;14.90;;;21.70;99.90;;;;;;5046943;28;20209;-51
2023/05/23 07:53:50;;;;;;;15.67;14.17;;;22.10;99.90;;;;;;5050668;28;20201;-52
2023/05/23 07:56:17;;;;;;;16.27;14.57;;;23.00;99.90;;;;;;5051336;28;20198;-51
2023/05/23 07:58:44;;;;;;;14.73;13.43;;;24.30;99.90;;;;;;5051026;28;20573;-52
2023/05/23 08:01:11;;;;;;;14.83;13.33;;;24.80;99.90;;;;;;5051156;28;20626;-52
2023/05/23 08:03:39;;;;;;;13.43;12.03;;;25.20;99.90;;;;;;5050836;28;20241;-52
2023/05/23 08:06:07;;;;;;;13.40;12.20;;;24.80;99.90;;;;;;5046877;28;20973;-52
2023/05/23 08:08:35;;;;;;;14.67;13.27;;;24.50;99.90;;;;;;5046534;28;20226;-52
2023/05/23 08:11:02;;;;;;;14.57;13.17;;;23.70;99.90;;;;;;5050815;28;20213;-52
2023/05/23 08:13:29;;;;;;;16.40;14.90;;;23.10;99.90;;;;;;5051321;28;20213;-51
2023/05/23 08:15:57;;;;;;;17.17;15.47;;;22.50;99.90;;;;;;5054515;28;20268;-51
2023/05/23 08:18:23;;;;;;;21.83;17.70;;;21.90;99.90;;;;;;5054162;28;20194;-51
2023/05/23 08:20:52;;;;;;;22.00;17.17;;;21.40;99.90;;;;;;5045311;28;20206;-51
2023/05/23 08:23:19;;;;;;;20.97;18.77;;;21.20;99.90;;;;;;5054214;28;20194;-51
2023/05/23 08:25:46;;;;;;;21.53;19.17;;;20.90;99.90;;;;;;5054741;28;20202;-51
2023/05/23 08:28:13;;;;;;;21.47;19.30;;;20.50;99.90;;;;;;5053899;28;20221;-51
2023/05/23 08:30:41;;;;;;;27.80;20.83;;;20.60;99.90;;;;;;5054307;28;20208;-51
2023/05/23 08:33:08;;;;;;;25.37;21.70;;;20.50;99.90;;;;;;5053991;28;20206;-51
2023/05/23 08:35:35;;;;;;;27.43;23.27;;;20.50;99.90;;;;;;5044323;28;20202;-51
2023/05/23 08:38:06;;;;;;;28.83;22.97;;;20.60;99.90;;;;;;5054307;28;20202;-51
2023/05/23 08:40:35;;;;;;;26.77;21.80;;;20.80;99.90;;;;;;5054160;28;20221;-51
2023/05/23 08:43:03;;;;;;;25.40;20.63;;;21.50;99.90;;;;;;5049885;28;20792;-51
2023/05/23 08:45:30;;;;;;;23.07;19.10;;;22.10;99.90;;;;;;5048905;28;20206;-52
2023/05/23 08:48:01;;;;;;;22.47;18.97;;;23.10;99.90;;;;;;5034399;28;20276;-52
2023/05/23 08:50:30;;;;;;;20.77;18.23;;;23.30;99.90;;;;;;5049754;28;20309;-52
2023/05/23 08:53:00;;;;;;;25.00;21.77;;;23.40;99.90;;;;;;5053605;28;20198;-52
2023/05/23 08:55:29;;;;;;;13.10;11.90;;;23.70;99.90;;;;;;5053851;28;20259;-52
2023/05/23 08:57:58;;;;;;;15.77;11.17;;;23.70;99.90;;;;;;5053089;28;20284;-52
2023/05/23 09:00:26;;;;;;;10.33;9.00;;;23.70;99.90;;;;;;5052963;28;20288;-52
2023/05/23 09:02:53;;;;;;;9.07;8.37;;;23.70;99.90;;;;;;5050178;28;20548;-51
2023/05/23 09:05:20;;;;;;;10.23;9.43;;;23.80;99.90;;;;;;5044507;28;20675;-52
2023/05/23 09:07:48;;;;;;;10.90;8.43;;;24.20;99.90;;;;;;5047613;28;20762;-52
2023/05/23 09:10:16;;;;;;;10.30;8.97;;;25.30;99.90;;;;;;5051909;28;20326;-52
2023/05/23 09:12:45;;;;;;;8.13;7.40;;;26.20;99.90;;;;;;5051753;28;20892;-53
2023/05/23 09:15:13;;;;;;;8.73;8.07;;;27.00;99.90;;;;;;5052187;28;20252;-52
2023/05/23 09:17:40;;;;;;;10.03;9.10;;;26.60;99.90;;;;;;5051021;28;20237;-52
2023/05/23 09:20:12;;;;;;;10.10;9.10;;;26.70;99.90;;;;;;5052239;28;20295;-53
2023/05/23 09:22:40;;;;;;;10.20;9.23;;;27.10;99.90;;;;;;5052296;28;20255;-53
2023/05/23 09:25:07;;;;;;;10.67;9.57;;;27.30;99.90;;;;;;5052563;28;20206;-53
2023/05/23 09:27:35;;;;;;;14.57;9.83;;;26.90;99.90;;;;;;5050470;28;20248;-53
2023/05/23 09:30:08;;;;;;;11.03;9.83;;;26.80;99.90;;;;;;5051177;28;21511;-53
2023/05/23 09:32:35;;;;;;;9.77;8.97;;;27.20;99.90;;;;;;5050878;28;20201;-53
2023/05/23 09:35:03;;;;;;;15.67;9.00;;;27.20;99.90;;;;;;5048097;28;20235;-53
2023/05/23 09:37:31;;;;;;;10.17;8.73;;;27.00;99.90;;;;;;5047039;28;20198;-53
2023/05/23 09:40:00;;;;;;;7.47;7.00;;;27.60;99.90;;;;;;5043955;28;20277;-53
2023/05/23 09:42:33;;;;;;;8.73;8.13;;;27.70;99.90;;;;;;5052656;28;20194;-53
2023/05/23 09:45:00;;;;;;;6.87;6.47;;;27.60;99.90;;;;;;5052795;28;20281;-52
2023/05/23 09:47:28;;;;;;;7.60;7.05;;;27.20;99.90;;;;;;5053205;28;20206;-53
2023/05/23 09:49:55;;;;;;;9.10;8.25;;;27.40;99.90;;;;;;5052912;28;20225;-53
2023/05/23 09:52:22;;;;;;;8.43;7.72;;;27.50;99.90;;;;;;5043140;28;20633;-53
2023/05/23 09:54:49;;;;;;;8.27;7.70;;;27.60;99.90;;;;;;5043813;28;20256;-53
2023/05/23 09:57:19;;;;;;;8.23;7.63;;;27.70;99.90;;;;;;5052838;28;20198;-52
2023/05/23 09:59:53;;;;;;;8.10;7.40;;;28.20;99.90;;;;;;5051718;28;20221;-52
2023/05/23 10:02:45;;;;;;;8.90;8.15;;;28.20;99.90;;;;;;5049813;28;20685;-52
2023/05/23 10:05:23;;;;;;;9.10;8.38;;;28.80;99.90;;;;;;5047812;28;20232;-52
2023/05/23 10:07:50;;;;;;;9.77;9.00;;;28.80;99.90;;;;;;5050500;28;20211;-52
2023/05/23 10:10:19;;;;;;;12.73;11.00;;;28.30;99.90;;;;;;5050708;28;20217;-52
2023/05/23 10:12:50;;;;;;;10.18;9.38;;;27.20;99.90;;;;;;5050554;28;20689;-52
2023/05/23 10:15:19;;;;;;;10.23;9.13;;;26.50;99.90;;;;;;5052539;28;20667;-52
2023/05/23 10:18:08;;;;;;;10.23;9.20;;;26.20;99.90;;;;;;5051570;28;20198;-52
2023/05/23 10:20:38;;;;;;;11.97;9.80;;;26.00;99.90;;;;;;5043646;28;20218;-52
2023/05/23 10:23:06;;;;;;;13.00;9.90;;;25.60;99.90;;;;;;5052067;28;20194;-52
2023/05/23 10:25:35;;;;;;;10.67;9.80;;;25.00;99.90;;;;;;5052354;28;20201;-52
2023/05/23 10:28:03;;;;;;;11.07;10.23;;;25.00;99.90;;;;;;5051064;28;20259;-52
2023/05/23 10:30:30;;;;;;;11.13;10.03;;;25.50;99.90;;;;;;5052164;28;20218;-52
2023/05/23 10:32:59;;;;;;;10.03;9.23;;;25.70;99.90;;;;;;5051820;28;20201;-52
2023/05/23 10:35:38;;;;;;;11.43;10.53;;;25.80;99.90;;;;;;5042149;28;20198;-52
2023/05/23 10:38:13;;;;;;;11.87;10.90;;;25.40;99.90;;;;;;5049381;28;20197;-52
2023/05/23 10:40:49;;;;;;;10.07;9.27;;;25.70;99.90;;;;;;5052182;28;20198;-52
2023/05/23 10:43:22;;;;;;;9.57;8.77;;;25.70;99.90;;;;;;5051661;28;20205;-52
2023/05/23 10:45:50;;;;;;;10.67;9.40;;;25.60;99.90;;;;;;5051897;28;20197;-52
2023/05/23 10:48:22;;;;;;;9.43;8.73;;;25.80;99.90;;;;;;5048382;28;20245;-52
2023/05/23 10:51:05;;;;;;;9.50;8.70;;;26.10;99.90;;;;;;5050780;28;20293;-52
2023/05/23 10:53:34;;;;;;;9.37;8.67;;;26.20;99.90;;;;;;5050338;28;20198;-51
2023/05/23 10:56:01;;;;;;;10.67;9.63;;;26.30;99.90;;;;;;5051799;28;20198;-51
2023/05/23 10:58:30;;;;;;;9.60;8.77;;;26.20;99.90;;;;;;5051731;28;20587;-51
2023/05/23 11:01:01;;;;;;;9.33;8.57;;;26.00;99.90;;;;;;5051666;28;20202;-52
2023/05/23 11:03:35;;;;;;;8.00;7.43;;;25.80;99.90;;;;;;5043999;28;20257;-52
2023/05/23 11:06:04;;;;;;;7.33;6.77;;;25.80;99.90;;;;;;5052185;28;20206;-51
2023/05/23 11:08:41;;;;;;;7.47;6.80;;;25.70;99.90;;;;;;5051466;28;20221;-52
2023/05/23 11:11:08;;;;;;;8.97;8.17;;;25.80;99.90;;;;;;5051617;28;20205;-52
2023/05/23 11:13:55;;;;;;;8.53;7.77;;;25.60;99.90;;;;;;5051349;28;20354;-52
2023/05/23 11:16:25;;;;;;;9.30;8.53;;;25.60;99.90;;;;;;5050764;28;20351;-52
2023/05/23 11:18:52;;;;;;;8.53;7.93;;;25.60;99.90;;;;;;5051199;28;20221;-52
2023/05/23 11:21:21;;;;;;;7.70;7.20;;;25.40;99.90;;;;;;5051770;28;20202;-51
2023/05/23 11:23:54;;;;;;;8.40;7.57;;;25.00;99.90;;;;;;5051348;28;20198;-51
2023/05/23 11:26:31;;;;;;;9.20;8.43;;;24.70;99.90;;;;;;5051777;28;20217;-51
2023/05/23 11:28:58;;;;;;;9.30;7.97;;;24.60;99.90;;;;;;5051247;28;20261;-52
2023/05/23 11:31:25;;;;;;;9.80;9.10;;;24.40;99.90;;;;;;5049924;28;20202;-51
2023/05/23 11:33:52;;;;;;;9.23;8.30;;;24.30;99.90;;;;;;5042957;28;20198;-51
2023/05/23 11:36:21;;;;;;;9.83;9.10;;;24.30;99.90;;;;;;5050082;28;20748;-51
2023/05/23 11:38:49;;;;;;;7.73;7.23;;;24.10;99.90;;;;;;5051053;28;20225;-52
2023/05/23 11:41:16;;;;;;;8.87;8.17;;;24.30;99.90;;;;;;5051231;28;20228;-51
2023/05/23 11:43:50;;;;;;;8.47;7.87;;;24.60;99.90;;;;;;5051033;28;20206;-51
2023/05/23 11:46:17;;;;;;;8.63;7.90;;;24.70;99.90;;;;;;5046580;28;20252;-53
2023/05/23 11:48:45;;;;;;;9.40;8.73;;;24.80;99.90;;;;;;5048705;28;20222;-52
2023/05/23 11:51:12;;;;;;;8.50;7.90;;;24.60;99.90;;;;;;5054852;28;20205;-52
2023/05/23 11:53:41;;;;;;;8.90;8.30;;;24.40;99.90;;;;;;5054805;28;20209;-52
2023/05/23 11:56:08;;;;;;;9.40;8.60;;;24.40;99.90;;;;;;5055131;28;20201;-52
2023/05/23 11:58:36;;;;;;;9.13;8.43;;;24.30;99.90;;;;;;5054995;28;20221;-52
2023/05/23 12:01:05;;;;;;;9.63;8.93;;;24.30;99.90;;;;;;5045342;28;20228;-52
2023/05/23 12:03:32;;;;;;;9.67;8.97;;;24.50;99.90;;;;;;5046303;28;20195;-52
2023/05/23 12:05:59;;;;;;;8.80;8.13;;;24.20;99.90;;;;;;5040432;28;20672;-51
2023/05/23 12:08:26;;;;;;;8.83;8.13;;;24.20;99.90;;;;;;5051117;28;20248;-51
2023/05/23 12:10:58;;;;;;;8.77;8.03;;;24.00;99.90;;;;;;5054653;28;20240;-52
2023/05/23 12:13:26;;;;;;;8.33;7.73;;;23.80;99.90;;;;;;5054532;28;20202;-51
2023/05/23 12:15:55;;;;;;;7.50;7.00;;;23.80;99.90;;;;;;5045263;28;20332;-51
2023/05/23 12:18:22;;;;;;;7.03;6.57;;;23.80;99.90;;;;;;5054482;28;20741;-51
2023/05/23 12:20:50;;;;;;;7.10;6.70;;;23.40;99.90;;;;;;5054526;28;20201;-51
2023/05/23 12:23:21;;;;;;;6.90;6.47;;;23.40;99.90;;;;;;5049001;28;20254;-52
2023/05/23 12:25:51;;;;;;;6.70;6.27;;;23.30;99.90;;;;;;5041471;28;20210;-51
2023/05/23 12:28:20;;;;;;;7.00;6.50;;;23.30;99.90;;;;;;5053326;28;20206;-52
2023/05/23 12:30:48;;;;;;;7.77;7.13;;;23.20;99.90;;;;;;5045791;28;20264;-52
2023/05/23 12:33:15;;;;;;;7.53;6.93;;;23.40;99.90;;;;;;5054105;28;20198;-51
2023/05/23 12:35:45;;;;;;;8.20;7.50;;;23.50;99.90;;;;;;5054505;28;20202;-51
2023/05/23 12:38:16;;;;;;;11.80;10.80;;;23.70;99.90;;;;;;5054554;28;20198;-51
2023/05/23 12:40:43;;;;;;;11.10;10.10;;;23.70;99.90;;;;;;5054167;28;20200;-51